sensor_id;sensor_type;location;lat;lon;timestamp;P1;durP1;ratioP1;P2;durP2;ratioP2
60416;SDS011;46263;44.726;10.396;2023-05-07T00:00:04;7.82;;;5.50;;
60416;SDS011;46263;44.726;10.396;2023-05-07T00:02:33;5.90;;;5.30;;
60416;SDS011;46263;44.726;10.396;2023-05-07T00:04:58;10.40;;;5.72;;
60416;SDS011;46263;44.726;10.396;2023-05-07T00:07:24;7.05;;;5.68;;
60416;SDS011;46263;44.726;10.396;2023-05-07T00:09:49;6.38;;;5.57;;
60416;SDS011;46263;44.726;10.396;2023-05-07T00:12:15;6.10;;;5.50;;
60416;SDS011;46263;44.726;10.396;2023-05-07T00:14:40;7.25;;;5.43;;
60416;SDS011;46263;44.726;10.396;2023-05-07T00:17:06;6.30;;;5.70;;
60416;SDS011;46263;44.726;10.396;2023-05-07T00:19:32;7.97;;;5.63;;
60416;SDS011;46263;44.726;10.396;2023-05-07T00:21:57;7.75;;;6.28;;
60416;SDS011;46263;44.726;10.396;2023-05-07T00:24:23;8.32;;;5.85;;
60416;SDS011;46263;44.726;10.396;2023-05-07T00:26:49;8.90;;;6.55;;
60416;SDS011;46263;44.726;10.396;2023-05-07T00:29:14;10.55;;;7.00;;
60416;SDS011;46263;44.726;10.396;2023-05-07T00:31:40;7.65;;;6.50;;
60416;SDS011;46263;44.726;10.396;2023-05-07T00:34:05;9.93;;;6.60;;
60416;SDS011;46263;44.726;10.396;2023-05-07T00:36:31;8.65;;;6.25;;
60416;SDS011;46263;44.726;10.396;2023-05-07T00:38:57;9.52;;;6.88;;
60416;SDS011;46263;44.726;10.396;2023-05-07T00:41:25;8.32;;;6.78;;
60416;SDS011;46263;44.726;10.396;2023-05-07T00:43:51;7.45;;;6.55;;
60416;SDS011;46263;44.726;10.396;2023-05-07T00:46:17;10.07;;;6.82;;
60416;SDS011;46263;44.726;10.396;2023-05-07T00:48:47;7.75;;;6.95;;
60416;SDS011;46263;44.726;10.396;2023-05-07T00:51:13;8.77;;;7.63;;
60416;SDS011;46263;44.726;10.396;2023-05-07T00:53:39;10.40;;;8.18;;
60416;SDS011;46263;44.726;10.396;2023-05-07T00:56:05;9.88;;;7.70;;
60416;SDS011;46263;44.726;10.396;2023-05-07T00:58:31;11.40;;;8.05;;
60416;SDS011;46263;44.726;10.396;2023-05-07T01:00:57;10.70;;;8.20;;
60416;SDS011;46263;44.726;10.396;2023-05-07T01:03:23;8.80;;;7.93;;
60416;SDS011;46263;44.726;10.396;2023-05-07T01:05:48;9.10;;;8.05;;
60416;SDS011;46263;44.726;10.396;2023-05-07T01:08:15;10.90;;;7.82;;
60416;SDS011;46263;44.726;10.396;2023-05-07T01:10:43;10.77;;;8.15;;
60416;SDS011;46263;44.726;10.396;2023-05-07T01:13:10;9.88;;;7.57;;
60416;SDS011;46263;44.726;10.396;2023-05-07T01:15:37;11.80;;;8.13;;
60416;SDS011;46263;44.726;10.396;2023-05-07T01:18:03;9.00;;;8.10;;
60416;SDS011;46263;44.726;10.396;2023-05-07T01:20:29;12.55;;;8.38;;
60416;SDS011;46263;44.726;10.396;2023-05-07T01:22:55;9.02;;;7.55;;
60416;SDS011;46263;44.726;10.396;2023-05-07T01:25:22;8.38;;;7.47;;
60416;SDS011;46263;44.726;10.396;2023-05-07T01:27:48;9.85;;;7.88;;
60416;SDS011;46263;44.726;10.396;2023-05-07T01:30:14;7.93;;;7.13;;
60416;SDS011;46263;44.726;10.396;2023-05-07T01:32:45;9.45;;;7.10;;
60416;SDS011;46263;44.726;10.396;2023-05-07T01:35:24;8.98;;;7.45;;
60416;SDS011;46263;44.726;10.396;2023-05-07T01:37:54;9.85;;;7.78;;
60416;SDS011;46263;44.726;10.396;2023-05-07T01:40:20;8.35;;;7.32;;
60416;SDS011;46263;44.726;10.396;2023-05-07T01:42:46;8.95;;;7.65;;
60416;SDS011;46263;44.726;10.396;2023-05-07T01:45:13;9.35;;;7.80;;
60416;SDS011;46263;44.726;10.396;2023-05-07T01:47:39;11.43;;;8.48;;
60416;SDS011;46263;44.726;10.396;2023-05-07T01:50:07;10.80;;;7.57;;
60416;SDS011;46263;44.726;10.396;2023-05-07T01:52:35;9.88;;;7.70;;
60416;SDS011;46263;44.726;10.396;2023-05-07T01:55:02;10.45;;;8.48;;
60416;SDS011;46263;44.726;10.396;2023-05-07T01:57:28;9.43;;;8.43;;
60416;SDS011;46263;44.726;10.396;2023-05-07T01:59:53;12.25;;;8.27;;
60416;SDS011;46263;44.726;10.396;2023-05-07T02:02:18;8.70;;;7.82;;
60416;SDS011;46263;44.726;10.396;2023-05-07T02:04:44;10.93;;;8.60;;
60416;SDS011;46263;44.726;10.396;2023-05-07T02:07:09;9.90;;;7.75;;
60416;SDS011;46263;44.726;10.396;2023-05-07T02:09:35;8.82;;;7.82;;
60416;SDS011;46263;44.726;10.396;2023-05-07T02:12:00;11.20;;;8.77;;
60416;SDS011;46263;44.726;10.396;2023-05-07T02:14:26;11.45;;;8.60;;
60416;SDS011;46263;44.726;10.396;2023-05-07T02:16:51;10.57;;;7.95;;
60416;SDS011;46263;44.726;10.396;2023-05-07T02:19:17;9.20;;;7.38;;
60416;SDS011;46263;44.726;10.396;2023-05-07T02:21:43;10.68;;;8.23;;
60416;SDS011;46263;44.726;10.396;2023-05-07T02:24:08;13.82;;;9.27;;
60416;SDS011;46263;44.726;10.396;2023-05-07T02:26:34;14.55;;;9.63;;
60416;SDS011;46263;44.726;10.396;2023-05-07T02:28:59;13.27;;;10.23;;
60416;SDS011;46263;44.726;10.396;2023-05-07T02:31:25;10.82;;;8.57;;
60416;SDS011;46263;44.726;10.396;2023-05-07T02:33:50;16.70;;;12.30;;
60416;SDS011;46263;44.726;10.396;2023-05-07T02:36:16;19.23;;;13.23;;
60416;SDS011;46263;44.726;10.396;2023-05-07T02:38:41;20.60;;;13.98;;
60416;SDS011;46263;44.726;10.396;2023-05-07T02:41:06;20.83;;;12.52;;
60416;SDS011;46263;44.726;10.396;2023-05-07T02:43:32;15.82;;;10.60;;
60416;SDS011;46263;44.726;10.396;2023-05-07T02:46:04;11.23;;;9.63;;
60416;SDS011;46263;44.726;10.396;2023-05-07T02:48:30;9.93;;;8.57;;
60416;SDS011;46263;44.726;10.396;2023-05-07T02:50:56;9.60;;;8.30;;
60416;SDS011;46263;44.726;10.396;2023-05-07T02:53:22;14.45;;;9.30;;
60416;SDS011;46263;44.726;10.396;2023-05-07T02:55:50;12.90;;;8.65;;
60416;SDS011;46263;44.726;10.396;2023-05-07T02:58:15;13.98;;;9.07;;
60416;SDS011;46263;44.726;10.396;2023-05-07T03:00:41;11.48;;;9.00;;
60416;SDS011;46263;44.726;10.396;2023-05-07T03:03:06;12.60;;;9.45;;
60416;SDS011;46263;44.726;10.396;2023-05-07T03:05:32;12.80;;;9.82;;
60416;SDS011;46263;44.726;10.396;2023-05-07T03:07:57;12.90;;;8.93;;
60416;SDS011;46263;44.726;10.396;2023-05-07T03:10:22;13.68;;;9.65;;
60416;SDS011;46263;44.726;10.396;2023-05-07T03:12:48;13.00;;;9.90;;
60416;SDS011;46263;44.726;10.396;2023-05-07T03:15:13;12.27;;;9.88;;
60416;SDS011;46263;44.726;10.396;2023-05-07T03:17:39;14.73;;;9.93;;
60416;SDS011;46263;44.726;10.396;2023-05-07T03:20:04;12.32;;;10.30;;
60416;SDS011;46263;44.726;10.396;2023-05-07T03:22:30;12.68;;;10.20;;
60416;SDS011;46263;44.726;10.396;2023-05-07T03:24:56;15.98;;;10.48;;
60416;SDS011;46263;44.726;10.396;2023-05-07T03:27:21;16.48;;;10.77;;
60416;SDS011;46263;44.726;10.396;2023-05-07T03:29:47;14.57;;;11.00;;
60416;SDS011;46263;44.726;10.396;2023-05-07T03:32:12;15.52;;;11.43;;
60416;SDS011;46263;44.726;10.396;2023-05-07T03:34:38;15.05;;;10.45;;
60416;SDS011;46263;44.726;10.396;2023-05-07T03:37:03;15.55;;;10.88;;
60416;SDS011;46263;44.726;10.396;2023-05-07T03:39:29;15.80;;;10.55;;
60416;SDS011;46263;44.726;10.396;2023-05-07T03:41:55;12.68;;;9.55;;
60416;SDS011;46263;44.726;10.396;2023-05-07T03:44:20;15.00;;;11.10;;
60416;SDS011;46263;44.726;10.396;2023-05-07T03:46:46;14.73;;;10.90;;
60416;SDS011;46263;44.726;10.396;2023-05-07T03:49:12;12.93;;;10.23;;
60416;SDS011;46263;44.726;10.396;2023-05-07T03:51:37;15.10;;;11.35;;
60416;SDS011;46263;44.726;10.396;2023-05-07T03:54:02;17.52;;;10.70;;
60416;SDS011;46263;44.726;10.396;2023-05-07T03:56:28;12.95;;;10.98;;
60416;SDS011;46263;44.726;10.396;2023-05-07T03:58:53;14.02;;;10.35;;
60416;SDS011;46263;44.726;10.396;2023-05-07T04:01:19;12.93;;;9.32;;
60416;SDS011;46263;44.726;10.396;2023-05-07T04:03:44;12.27;;;9.27;;
60416;SDS011;46263;44.726;10.396;2023-05-07T04:06:10;12.55;;;9.68;;
60416;SDS011;46263;44.726;10.396;2023-05-07T04:08:35;11.30;;;9.00;;
60416;SDS011;46263;44.726;10.396;2023-05-07T04:11:01;11.40;;;9.00;;
60416;SDS011;46263;44.726;10.396;2023-05-07T04:13:26;10.43;;;8.40;;
60416;SDS011;46263;44.726;10.396;2023-05-07T04:15:52;12.23;;;7.95;;
60416;SDS011;46263;44.726;10.396;2023-05-07T04:18:19;10.25;;;7.93;;
60416;SDS011;46263;44.726;10.396;2023-05-07T04:20:45;10.93;;;8.13;;
60416;SDS011;46263;44.726;10.396;2023-05-07T04:23:10;11.30;;;8.23;;
60416;SDS011;46263;44.726;10.396;2023-05-07T04:25:36;9.02;;;7.07;;
60416;SDS011;46263;44.726;10.396;2023-05-07T04:28:01;7.70;;;6.63;;
60416;SDS011;46263;44.726;10.396;2023-05-07T04:30:27;8.38;;;6.85;;
60416;SDS011;46263;44.726;10.396;2023-05-07T04:32:52;8.95;;;7.15;;
60416;SDS011;46263;44.726;10.396;2023-05-07T04:35:18;9.07;;;6.75;;
60416;SDS011;46263;44.726;10.396;2023-05-07T04:37:43;9.20;;;7.07;;
60416;SDS011;46263;44.726;10.396;2023-05-07T04:40:09;8.85;;;7.07;;
60416;SDS011;46263;44.726;10.396;2023-05-07T04:42:35;7.63;;;6.45;;
60416;SDS011;46263;44.726;10.396;2023-05-07T04:45:01;7.15;;;6.43;;
60416;SDS011;46263;44.726;10.396;2023-05-07T04:47:27;9.48;;;6.47;;
60416;SDS011;46263;44.726;10.396;2023-05-07T04:49:52;7.32;;;6.15;;
60416;SDS011;46263;44.726;10.396;2023-05-07T04:52:18;7.88;;;6.10;;
60416;SDS011;46263;44.726;10.396;2023-05-07T04:54:43;7.60;;;5.53;;
60416;SDS011;46263;44.726;10.396;2023-05-07T04:57:09;10.68;;;7.00;;
60416;SDS011;46263;44.726;10.396;2023-05-07T04:59:34;9.85;;;6.97;;
60416;SDS011;46263;44.726;10.396;2023-05-07T05:02:00;9.15;;;6.70;;
60416;SDS011;46263;44.726;10.396;2023-05-07T05:04:26;6.70;;;5.90;;
60416;SDS011;46263;44.726;10.396;2023-05-07T05:06:52;8.50;;;5.68;;
60416;SDS011;46263;44.726;10.396;2023-05-07T05:09:17;7.95;;;5.65;;
60416;SDS011;46263;44.726;10.396;2023-05-07T05:11:43;7.13;;;5.70;;
60416;SDS011;46263;44.726;10.396;2023-05-07T05:14:08;7.93;;;5.68;;
60416;SDS011;46263;44.726;10.396;2023-05-07T05:16:33;8.90;;;5.53;;
60416;SDS011;46263;44.726;10.396;2023-05-07T05:18:59;8.98;;;5.63;;
60416;SDS011;46263;44.726;10.396;2023-05-07T05:21:24;6.15;;;5.40;;
60416;SDS011;46263;44.726;10.396;2023-05-07T05:23:50;6.63;;;5.75;;
60416;SDS011;46263;44.726;10.396;2023-05-07T05:26:15;7.43;;;5.72;;
60416;SDS011;46263;44.726;10.396;2023-05-07T05:28:41;5.95;;;5.10;;
60416;SDS011;46263;44.726;10.396;2023-05-07T05:31:06;5.55;;;4.72;;
60416;SDS011;46263;44.726;10.396;2023-05-07T05:33:32;5.95;;;5.35;;
60416;SDS011;46263;44.726;10.396;2023-05-07T05:35:57;6.75;;;5.13;;
60416;SDS011;46263;44.726;10.396;2023-05-07T05:38:22;7.20;;;5.57;;
60416;SDS011;46263;44.726;10.396;2023-05-07T05:40:48;6.47;;;5.38;;
60416;SDS011;46263;44.726;10.396;2023-05-07T05:43:13;5.35;;;4.55;;
60416;SDS011;46263;44.726;10.396;2023-05-07T05:45:39;6.35;;;4.47;;
60416;SDS011;46263;44.726;10.396;2023-05-07T05:48:05;7.78;;;4.75;;
60416;SDS011;46263;44.726;10.396;2023-05-07T05:50:31;6.60;;;4.28;;
60416;SDS011;46263;44.726;10.396;2023-05-07T05:52:56;8.20;;;4.25;;
60416;SDS011;46263;44.726;10.396;2023-05-07T05:55:22;5.10;;;4.25;;
60416;SDS011;46263;44.726;10.396;2023-05-07T05:57:48;5.25;;;4.50;;
60416;SDS011;46263;44.726;10.396;2023-05-07T06:00:15;6.03;;;4.97;;
60416;SDS011;46263;44.726;10.396;2023-05-07T06:02:41;5.88;;;4.60;;
60416;SDS011;46263;44.726;10.396;2023-05-07T06:05:07;5.05;;;4.55;;
60416;SDS011;46263;44.726;10.396;2023-05-07T06:07:33;5.20;;;4.70;;
60416;SDS011;46263;44.726;10.396;2023-05-07T06:09:59;8.32;;;4.30;;
60416;SDS011;46263;44.726;10.396;2023-05-07T06:12:25;5.95;;;4.25;;
60416;SDS011;46263;44.726;10.396;2023-05-07T06:14:51;6.78;;;4.18;;
60416;SDS011;46263;44.726;10.396;2023-05-07T06:17:17;4.47;;;3.70;;
60416;SDS011;46263;44.726;10.396;2023-05-07T06:19:42;6.72;;;4.85;;
60416;SDS011;46263;44.726;10.396;2023-05-07T06:22:07;5.53;;;4.40;;
60416;SDS011;46263;44.726;10.396;2023-05-07T06:24:33;7.35;;;5.25;;
60416;SDS011;46263;44.726;10.396;2023-05-07T06:26:58;6.47;;;4.88;;
60416;SDS011;46263;44.726;10.396;2023-05-07T06:29:24;6.55;;;4.80;;
60416;SDS011;46263;44.726;10.396;2023-05-07T06:31:52;6.05;;;4.30;;
60416;SDS011;46263;44.726;10.396;2023-05-07T06:34:18;6.70;;;4.32;;
60416;SDS011;46263;44.726;10.396;2023-05-07T06:36:43;5.13;;;4.45;;
60416;SDS011;46263;44.726;10.396;2023-05-07T06:39:08;6.13;;;4.00;;
60416;SDS011;46263;44.726;10.396;2023-05-07T06:41:34;8.02;;;4.60;;
60416;SDS011;46263;44.726;10.396;2023-05-07T06:44:01;4.40;;;4.00;;
60416;SDS011;46263;44.726;10.396;2023-05-07T06:46:27;5.50;;;4.07;;
60416;SDS011;46263;44.726;10.396;2023-05-07T06:48:53;4.85;;;4.32;;
60416;SDS011;46263;44.726;10.396;2023-05-07T06:51:18;7.03;;;4.47;;
60416;SDS011;46263;44.726;10.396;2023-05-07T06:53:44;5.60;;;3.92;;
60416;SDS011;46263;44.726;10.396;2023-05-07T06:56:09;4.53;;;4.10;;
60416;SDS011;46263;44.726;10.396;2023-05-07T06:58:35;7.35;;;4.25;;
60416;SDS011;46263;44.726;10.396;2023-05-07T07:01:00;5.38;;;4.40;;
60416;SDS011;46263;44.726;10.396;2023-05-07T07:03:25;4.85;;;3.97;;
60416;SDS011;46263;44.726;10.396;2023-05-07T07:05:52;6.25;;;4.47;;
60416;SDS011;46263;44.726;10.396;2023-05-07T07:08:18;6.38;;;4.20;;
60416;SDS011;46263;44.726;10.396;2023-05-07T07:10:46;8.75;;;6.00;;
60416;SDS011;46263;44.726;10.396;2023-05-07T07:13:11;8.73;;;6.00;;
60416;SDS011;46263;44.726;10.396;2023-05-07T07:15:37;6.93;;;5.70;;
60416;SDS011;46263;44.726;10.396;2023-05-07T07:18:02;10.43;;;6.90;;
60416;SDS011;46263;44.726;10.396;2023-05-07T07:20:28;9.82;;;6.68;;
60416;SDS011;46263;44.726;10.396;2023-05-07T07:22:53;9.38;;;6.85;;
60416;SDS011;46263;44.726;10.396;2023-05-07T07:25:19;11.50;;;7.70;;
60416;SDS011;46263;44.726;10.396;2023-05-07T07:27:44;10.45;;;7.80;;
60416;SDS011;46263;44.726;10.396;2023-05-07T07:30:10;9.32;;;7.72;;
60416;SDS011;46263;44.726;10.396;2023-05-07T07:32:35;9.27;;;6.93;;
60416;SDS011;46263;44.726;10.396;2023-05-07T07:35:01;10.35;;;7.32;;
60416;SDS011;46263;44.726;10.396;2023-05-07T07:37:26;11.60;;;7.90;;
60416;SDS011;46263;44.726;10.396;2023-05-07T07:39:52;12.25;;;8.40;;
60416;SDS011;46263;44.726;10.396;2023-05-07T07:42:17;15.70;;;8.55;;
60416;SDS011;46263;44.726;10.396;2023-05-07T07:44:43;10.82;;;8.93;;
60416;SDS011;46263;44.726;10.396;2023-05-07T07:47:09;12.27;;;8.77;;
60416;SDS011;46263;44.726;10.396;2023-05-07T07:49:36;19.38;;;8.77;;
60416;SDS011;46263;44.726;10.396;2023-05-07T07:52:01;12.05;;;8.32;;
60416;SDS011;46263;44.726;10.396;2023-05-07T07:54:27;10.15;;;8.07;;
60416;SDS011;46263;44.726;10.396;2023-05-07T07:56:52;11.93;;;9.35;;
60416;SDS011;46263;44.726;10.396;2023-05-07T07:59:17;13.50;;;8.50;;
60416;SDS011;46263;44.726;10.396;2023-05-07T08:01:44;11.23;;;8.68;;
60416;SDS011;46263;44.726;10.396;2023-05-07T08:04:10;9.23;;;8.05;;
60416;SDS011;46263;44.726;10.396;2023-05-07T08:06:35;13.05;;;8.10;;
60416;SDS011;46263;44.726;10.396;2023-05-07T08:09:01;13.20;;;8.80;;
60416;SDS011;46263;44.726;10.396;2023-05-07T08:11:27;11.10;;;8.18;;
60416;SDS011;46263;44.726;10.396;2023-05-07T08:13:53;11.02;;;8.43;;
60416;SDS011;46263;44.726;10.396;2023-05-07T08:16:19;14.32;;;8.60;;
60416;SDS011;46263;44.726;10.396;2023-05-07T08:18:45;8.90;;;7.47;;
60416;SDS011;46263;44.726;10.396;2023-05-07T08:21:11;12.40;;;8.70;;
60416;SDS011;46263;44.726;10.396;2023-05-07T08:23:36;10.35;;;8.20;;
60416;SDS011;46263;44.726;10.396;2023-05-07T08:26:01;10.65;;;8.52;;
60416;SDS011;46263;44.726;10.396;2023-05-07T08:28:27;11.13;;;8.25;;
60416;SDS011;46263;44.726;10.396;2023-05-07T08:30:52;11.50;;;7.88;;
60416;SDS011;46263;44.726;10.396;2023-05-07T08:33:18;11.55;;;8.43;;
60416;SDS011;46263;44.726;10.396;2023-05-07T08:35:44;11.82;;;7.78;;
60416;SDS011;46263;44.726;10.396;2023-05-07T08:38:09;14.43;;;9.93;;
60416;SDS011;46263;44.726;10.396;2023-05-07T08:40:38;12.40;;;8.85;;
60416;SDS011;46263;44.726;10.396;2023-05-07T08:43:06;11.57;;;8.35;;
60416;SDS011;46263;44.726;10.396;2023-05-07T08:45:32;10.30;;;7.97;;
60416;SDS011;46263;44.726;10.396;2023-05-07T08:48:00;10.68;;;8.02;;
60416;SDS011;46263;44.726;10.396;2023-05-07T08:50:28;11.13;;;9.13;;
60416;SDS011;46263;44.726;10.396;2023-05-07T08:52:53;12.25;;;8.98;;
60416;SDS011;46263;44.726;10.396;2023-05-07T08:55:19;13.43;;;9.00;;
60416;SDS011;46263;44.726;10.396;2023-05-07T08:57:45;15.35;;;8.88;;
60416;SDS011;46263;44.726;10.396;2023-05-07T09:00:12;12.63;;;8.60;;
60416;SDS011;46263;44.726;10.396;2023-05-07T09:02:38;11.88;;;8.73;;
60416;SDS011;46263;44.726;10.396;2023-05-07T09:05:03;10.05;;;7.57;;
60416;SDS011;46263;44.726;10.396;2023-05-07T09:07:29;11.82;;;8.90;;
60416;SDS011;46263;44.726;10.396;2023-05-07T09:09:55;16.33;;;9.70;;
60416;SDS011;46263;44.726;10.396;2023-05-07T09:12:22;11.10;;;8.68;;
60416;SDS011;46263;44.726;10.396;2023-05-07T09:14:48;12.02;;;8.02;;
60416;SDS011;46263;44.726;10.396;2023-05-07T09:17:15;10.18;;;8.30;;
60416;SDS011;46263;44.726;10.396;2023-05-07T09:19:41;11.40;;;8.60;;
60416;SDS011;46263;44.726;10.396;2023-05-07T09:22:09;12.10;;;8.57;;
60416;SDS011;46263;44.726;10.396;2023-05-07T09:24:35;12.02;;;8.55;;
60416;SDS011;46263;44.726;10.396;2023-05-07T09:27:06;11.73;;;8.02;;
60416;SDS011;46263;44.726;10.396;2023-05-07T09:29:31;9.60;;;8.10;;
60416;SDS011;46263;44.726;10.396;2023-05-07T09:32:06;12.00;;;7.78;;
60416;SDS011;46263;44.726;10.396;2023-05-07T09:34:33;9.52;;;7.38;;
60416;SDS011;46263;44.726;10.396;2023-05-07T09:37:00;10.85;;;7.82;;
60416;SDS011;46263;44.726;10.396;2023-05-07T09:39:26;8.90;;;6.80;;
60416;SDS011;46263;44.726;10.396;2023-05-07T09:42:03;9.50;;;6.88;;
60416;SDS011;46263;44.726;10.396;2023-05-07T09:44:31;8.18;;;7.13;;
60416;SDS011;46263;44.726;10.396;2023-05-07T09:46:57;10.27;;;7.65;;
60416;SDS011;46263;44.726;10.396;2023-05-07T09:49:25;9.20;;;6.72;;
60416;SDS011;46263;44.726;10.396;2023-05-07T09:51:55;10.40;;;7.05;;
60416;SDS011;46263;44.726;10.396;2023-05-07T09:54:21;8.23;;;6.13;;
60416;SDS011;46263;44.726;10.396;2023-05-07T09:56:51;7.38;;;5.50;;
60416;SDS011;46263;44.726;10.396;2023-05-07T09:59:17;7.20;;;5.95;;
60416;SDS011;46263;44.726;10.396;2023-05-07T10:01:43;7.60;;;5.63;;
60416;SDS011;46263;44.726;10.396;2023-05-07T10:04:10;6.80;;;5.63;;
60416;SDS011;46263;44.726;10.396;2023-05-07T10:06:36;7.97;;;5.82;;
60416;SDS011;46263;44.726;10.396;2023-05-07T10:09:03;6.82;;;5.40;;
60416;SDS011;46263;44.726;10.396;2023-05-07T10:11:32;7.88;;;5.35;;
60416;SDS011;46263;44.726;10.396;2023-05-07T10:13:59;6.78;;;5.68;;
60416;SDS011;46263;44.726;10.396;2023-05-07T10:16:27;6.35;;;5.07;;
60416;SDS011;46263;44.726;10.396;2023-05-07T10:18:54;5.82;;;5.22;;
60416;SDS011;46263;44.726;10.396;2023-05-07T10:21:20;5.90;;;5.30;;
60416;SDS011;46263;44.726;10.396;2023-05-07T10:23:53;7.80;;;4.95;;
60416;SDS011;46263;44.726;10.396;2023-05-07T10:26:25;6.05;;;5.13;;
60416;SDS011;46263;44.726;10.396;2023-05-07T10:28:54;7.53;;;5.47;;
60416;SDS011;46263;44.726;10.396;2023-05-07T10:34:13;8.13;;;5.78;;
60416;SDS011;46263;44.726;10.396;2023-05-07T10:36:44;8.83;;;6.10;;
60416;SDS011;46263;44.726;10.396;2023-05-07T10:39:10;5.72;;;4.70;;
60416;SDS011;46263;44.726;10.396;2023-05-07T10:41:35;6.60;;;4.72;;
60416;SDS011;46263;44.726;10.396;2023-05-07T10:44:01;8.07;;;4.40;;
60416;SDS011;46263;44.726;10.396;2023-05-07T10:46:27;4.68;;;4.05;;
60416;SDS011;46263;44.726;10.396;2023-05-07T10:51:29;6.75;;;5.47;;
60416;SDS011;46263;44.726;10.396;2023-05-07T10:56:37;6.57;;;5.68;;
60416;SDS011;46263;44.726;10.396;2023-05-07T11:02:00;8.70;;;5.13;;
60416;SDS011;46263;44.726;10.396;2023-05-07T11:04:31;5.95;;;5.35;;
60416;SDS011;46263;44.726;10.396;2023-05-07T11:15:36;5.78;;;5.07;;
60416;SDS011;46263;44.726;10.396;2023-05-07T11:18:07;7.45;;;4.75;;
60416;SDS011;46263;44.726;10.396;2023-05-07T11:23:54;5.05;;;3.65;;
60416;SDS011;46263;44.726;10.396;2023-05-07T11:26:05;6.65;;;3.42;;
60416;SDS011;46263;44.726;10.396;2023-05-07T11:28:39;5.45;;;4.30;;
60416;SDS011;46263;44.726;10.396;2023-05-07T11:31:06;7.78;;;6.30;;
60416;SDS011;46263;44.726;10.396;2023-05-07T11:33:32;8.85;;;7.05;;
60416;SDS011;46263;44.726;10.396;2023-05-07T11:35:59;9.15;;;7.45;;
60416;SDS011;46263;44.726;10.396;2023-05-07T11:38:25;10.90;;;7.75;;
60416;SDS011;46263;44.726;10.396;2023-05-07T11:40:55;8.52;;;6.70;;
60416;SDS011;46263;44.726;10.396;2023-05-07T11:43:22;7.93;;;5.90;;
60416;SDS011;46263;44.726;10.396;2023-05-07T11:45:47;8.50;;;6.63;;
60416;SDS011;46263;44.726;10.396;2023-05-07T11:48:14;11.70;;;7.07;;
60416;SDS011;46263;44.726;10.396;2023-05-07T11:50:53;11.00;;;5.72;;
60416;SDS011;46263;44.726;10.396;2023-05-07T11:53:25;8.63;;;5.70;;
60416;SDS011;46263;44.726;10.396;2023-05-07T11:55:57;5.82;;;5.30;;
60416;SDS011;46263;44.726;10.396;2023-05-07T11:58:24;7.00;;;5.40;;
60416;SDS011;46263;44.726;10.396;2023-05-07T12:00:51;6.30;;;4.97;;
60416;SDS011;46263;44.726;10.396;2023-05-07T12:03:19;8.18;;;4.90;;
60416;SDS011;46263;44.726;10.396;2023-05-07T12:05:46;6.05;;;5.20;;
60416;SDS011;46263;44.726;10.396;2023-05-07T12:08:16;6.82;;;5.22;;
60416;SDS011;46263;44.726;10.396;2023-05-07T12:10:42;8.05;;;5.13;;
60416;SDS011;46263;44.726;10.396;2023-05-07T12:13:19;7.57;;;4.88;;
60416;SDS011;46263;44.726;10.396;2023-05-07T12:15:52;6.38;;;5.07;;
60416;SDS011;46263;44.726;10.396;2023-05-07T12:18:18;5.22;;;4.70;;
60416;SDS011;46263;44.726;10.396;2023-05-07T12:20:44;5.63;;;4.05;;
60416;SDS011;46263;44.726;10.396;2023-05-07T12:23:10;4.25;;;3.85;;
60416;SDS011;46263;44.726;10.396;2023-05-07T12:25:36;5.53;;;4.47;;
60416;SDS011;46263;44.726;10.396;2023-05-07T12:28:03;5.40;;;4.53;;
60416;SDS011;46263;44.726;10.396;2023-05-07T12:30:39;4.90;;;4.43;;
60416;SDS011;46263;44.726;10.396;2023-05-07T12:33:05;6.65;;;4.20;;
60416;SDS011;46263;44.726;10.396;2023-05-07T12:35:31;5.03;;;4.53;;
60416;SDS011;46263;44.726;10.396;2023-05-07T12:38:01;4.78;;;4.32;;
60416;SDS011;46263;44.726;10.396;2023-05-07T12:40:50;6.38;;;4.47;;
60416;SDS011;46263;44.726;10.396;2023-05-07T12:43:26;5.05;;;4.55;;
60416;SDS011;46263;44.726;10.396;2023-05-07T12:45:57;6.60;;;5.22;;
60416;SDS011;46263;44.726;10.396;2023-05-07T12:48:25;9.35;;;4.50;;
60416;SDS011;46263;44.726;10.396;2023-05-07T12:50:59;6.35;;;4.20;;
60416;SDS011;46263;44.726;10.396;2023-05-07T12:53:25;7.70;;;4.50;;
60416;SDS011;46263;44.726;10.396;2023-05-07T12:55:52;4.72;;;4.22;;
60416;SDS011;46263;44.726;10.396;2023-05-07T13:00:52;12.20;;;3.95;;
60416;SDS011;46263;44.726;10.396;2023-05-07T13:03:26;4.13;;;3.80;;
60416;SDS011;46263;44.726;10.396;2023-05-07T13:06:01;8.05;;;4.38;;
60416;SDS011;46263;44.726;10.396;2023-05-07T13:08:29;4.97;;;4.43;;
60416;SDS011;46263;44.726;10.396;2023-05-07T13:10:57;4.78;;;4.20;;
60416;SDS011;46263;44.726;10.396;2023-05-07T13:13:23;4.75;;;4.22;;
60416;SDS011;46263;44.726;10.396;2023-05-07T13:15:50;5.07;;;4.47;;
60416;SDS011;46263;44.726;10.396;2023-05-07T13:18:15;4.15;;;3.75;;
60416;SDS011;46263;44.726;10.396;2023-05-07T13:20:41;5.30;;;4.43;;
60416;SDS011;46263;44.726;10.396;2023-05-07T13:23:06;5.20;;;4.18;;
60416;SDS011;46263;44.726;10.396;2023-05-07T13:25:32;6.28;;;3.78;;
60416;SDS011;46263;44.726;10.396;2023-05-07T13:27:57;5.55;;;4.03;;
60416;SDS011;46263;44.726;10.396;2023-05-07T13:30:23;4.35;;;3.95;;
60416;SDS011;46263;44.726;10.396;2023-05-07T13:32:48;7.35;;;4.25;;
60416;SDS011;46263;44.726;10.396;2023-05-07T13:35:15;5.07;;;4.57;;
60416;SDS011;46263;44.726;10.396;2023-05-07T13:37:41;4.47;;;4.07;;
60416;SDS011;46263;44.726;10.396;2023-05-07T13:40:07;12.73;;;6.18;;
60416;SDS011;46263;44.726;10.396;2023-05-07T13:42:33;8.15;;;4.30;;
60416;SDS011;46263;44.726;10.396;2023-05-07T13:44:58;5.22;;;4.45;;
60416;SDS011;46263;44.726;10.396;2023-05-07T13:47:24;5.35;;;4.43;;
60416;SDS011;46263;44.726;10.396;2023-05-07T13:49:49;4.75;;;4.10;;
60416;SDS011;46263;44.726;10.396;2023-05-07T13:52:15;6.32;;;5.32;;
60416;SDS011;46263;44.726;10.396;2023-05-07T13:54:41;6.82;;;3.88;;
60416;SDS011;46263;44.726;10.396;2023-05-07T13:57:07;8.95;;;4.90;;
60416;SDS011;46263;44.726;10.396;2023-05-07T13:59:32;8.52;;;4.53;;
60416;SDS011;46263;44.726;10.396;2023-05-07T14:01:58;6.40;;;4.75;;
60416;SDS011;46263;44.726;10.396;2023-05-07T14:04:24;10.10;;;5.63;;
60416;SDS011;46263;44.726;10.396;2023-05-07T14:06:49;6.40;;;4.70;;
60416;SDS011;46263;44.726;10.396;2023-05-07T14:09:14;13.65;;;6.07;;
60416;SDS011;46263;44.726;10.396;2023-05-07T14:11:40;15.65;;;7.05;;
60416;SDS011;46263;44.726;10.396;2023-05-07T14:14:06;8.57;;;4.75;;
60416;SDS011;46263;44.726;10.396;2023-05-07T14:16:31;12.13;;;4.80;;
60416;SDS011;46263;44.726;10.396;2023-05-07T14:18:57;6.22;;;4.00;;
60416;SDS011;46263;44.726;10.396;2023-05-07T14:21:22;4.65;;;4.22;;
60416;SDS011;46263;44.726;10.396;2023-05-07T14:23:48;4.28;;;3.88;;
60416;SDS011;46263;44.726;10.396;2023-05-07T14:26:13;3.60;;;3.30;;
60416;SDS011;46263;44.726;10.396;2023-05-07T14:28:39;8.43;;;4.25;;
60416;SDS011;46263;44.726;10.396;2023-05-07T14:31:06;6.93;;;3.90;;
60416;SDS011;46263;44.726;10.396;2023-05-07T14:33:31;5.38;;;3.85;;
60416;SDS011;46263;44.726;10.396;2023-05-07T14:35:57;7.25;;;4.22;;
60416;SDS011;46263;44.726;10.396;2023-05-07T14:38:25;3.88;;;3.45;;
60416;SDS011;46263;44.726;10.396;2023-05-07T14:40:51;5.57;;;4.05;;
60416;SDS011;46263;44.726;10.396;2023-05-07T14:43:17;4.80;;;4.03;;
60416;SDS011;46263;44.726;10.396;2023-05-07T14:45:42;4.40;;;3.90;;
60416;SDS011;46263;44.726;10.396;2023-05-07T14:48:08;9.63;;;4.05;;